createdAt,value
2022-10-01T00:07:31.276Z,7.42
2022-10-01T00:22:37.809Z,7.59
2022-10-01T00:37:43.737Z,7.60
2022-10-01T00:52:54.561Z,7.79
2022-10-01T01:08:01.809Z,7.89
2022-10-01T01:23:23.598Z,7.98
2022-10-01T01:38:31.940Z,8.06
2022-10-01T01:53:37.818Z,8.18
2022-10-01T02:08:51.219Z,8.14
2022-10-01T02:24:02.170Z,8.06
2022-10-01T02:39:08.866Z,8.18
2022-10-01T02:54:19.393Z,8.27
2022-10-01T03:09:25.007Z,8.33
2022-10-01T03:24:30.626Z,8.37
2022-10-01T03:39:36.337Z,8.46
2022-10-01T03:54:42.094Z,8.44
2022-10-01T04:09:47.724Z,8.58
2022-10-01T04:24:54.017Z,8.60
2022-10-01T04:39:59.547Z,8.65
2022-10-01T04:55:05.414Z,8.72
2022-10-01T05:10:13.724Z,8.83
2022-10-01T05:25:20.654Z,8.89
2022-10-01T05:40:27.627Z,8.91
2022-10-01T05:55:33.653Z,9.00
2022-10-01T06:10:39.562Z,9.04
2022-10-01T06:25:45.799Z,9.11
2022-10-01T06:40:55.534Z,9.18
2022-10-01T06:56:06.329Z,9.32
2022-10-01T07:11:11.849Z,9.39
2022-10-01T07:26:17.545Z,9.51
2022-10-01T07:41:23.125Z,9.59
2022-10-01T07:56:29.071Z,9.75
2022-10-01T08:11:35.737Z,9.86
2022-10-01T08:26:42.045Z,10.22
2022-10-01T08:41:56.291Z,10.31
2022-10-01T08:57:03.812Z,10.59
2022-10-01T09:12:28.475Z,11.07
2022-10-01T09:27:35.191Z,11.26
2022-10-01T09:42:41.481Z,11.59
2022-10-01T09:57:52.136Z,11.82
2022-10-01T10:13:01.172Z,11.77
2022-10-01T10:28:19.286Z,11.76
2022-10-01T10:43:27.870Z,11.94
2022-10-01T10:58:35.348Z,11.81
2022-10-01T11:14:04.205Z,11.82
2022-10-01T11:29:25.483Z,11.91
2022-10-01T11:44:34.298Z,11.91
2022-10-01T11:59:44.493Z,11.88
2022-10-01T12:14:55.753Z,11.86
2022-10-01T12:30:06.119Z,11.87
2022-10-01T12:45:23.906Z,12.15
2022-10-01T13:00:35.667Z,12.22
2022-10-01T13:15:44.338Z,12.38
2022-10-01T13:31:00.957Z,12.49
2022-10-01T13:46:12.345Z,12.51
2022-10-01T14:01:38.276Z,12.65
2022-10-01T14:16:47.246Z,12.76
2022-10-01T14:32:03.799Z,12.89
2022-10-01T14:47:20.717Z,13.12
2022-10-01T15:02:29.277Z,13.38
2022-10-01T15:17:37.665Z,13.51
2022-10-01T15:32:43.821Z,13.65
2022-10-01T15:47:53.157Z,13.70
2022-10-01T16:02:59.957Z,13.60
2022-10-01T16:18:23.729Z,13.54
2022-10-01T16:33:29.690Z,13.52
2022-10-01T16:48:35.531Z,13.52
2022-10-01T17:03:41.246Z,13.52
2022-10-01T17:18:47.144Z,13.48
2022-10-01T17:33:53.354Z,13.56
2022-10-01T17:48:59.131Z,13.48
2022-10-01T18:04:05.973Z,13.46
2022-10-01T18:34:44.751Z,13.41
2022-10-01T18:50:05.764Z,13.41
2022-10-01T19:05:38.870Z,13.34
2022-10-01T19:20:55.592Z,13.12
2022-10-01T19:36:02.900Z,12.77
2022-10-01T19:51:12.776Z,12.53
2022-10-01T20:06:26.619Z,12.55
2022-10-01T20:21:47.838Z,12.55
2022-10-01T20:37:08.494Z,12.60
2022-10-01T20:52:24.514Z,12.70
2022-10-01T21:07:37.493Z,12.74
2022-10-01T21:22:59.169Z,13.10
2022-10-01T21:38:13.081Z,12.72
2022-10-01T21:53:43.622Z,12.72
2022-10-01T22:08:58.651Z,12.77
2022-10-01T22:24:08.960Z,12.86
2022-10-01T22:39:20.997Z,12.96
2022-10-01T22:54:36.107Z,12.86
2022-10-01T23:09:51.064Z,12.44
2022-10-01T23:25:09.371Z,12.22
2022-10-01T23:40:17.088Z,12.08
2022-10-01T23:55:54.473Z,12.12
